GW4623 Weather Reports


Display with metric or nautical units.
time (UTC)temp
F
wind
direction
speed
MPH
gust
MPH
rain 1hr
in
rain 24hr
in
rain mn
in
humidity
%
barometer
mb
20240616084247 63 143 4.0 4.0 0.00 0.62 0.62 99 1004.0
20240616083746 64 262 1.0 4.0 0.00 0.62 0.62 99 1003.9
20240616083245 64 142 3.0 3.0 0.00 0.62 0.62 99 1004.0
20240616082744 64 150 2.0 3.0 0.00 0.62 0.62 99 1004.0
20240616082243 64 215 0.0 3.0 0.02 0.62 0.62 99 1004.4
20240616081742 64 141 0.0 5.0 0.04 0.62 0.62 99 1004.3
20240616081240 64 226 1.0 3.0 0.18 0.62 0.62 99 1004.3
20240616080738 64 86 1.0 6.0 0.26 0.61 0.61 99 1004.5
20240616080238 64 122 1.0 2.0 0.23 0.58 0.58 99 1004.6
20240616075737 64 144 1.0 3.0 0.26 0.56 0.56 99 1004.8
20240616075235 64 137 2.0 4.0 0.18 0.54 0.54 98 1004.8
20240616074733 64 198 2.0 2.0 0.18 0.52 0.52 98 1005.0
20240616074233 64 174 0.0 2.0 0.21 0.50 0.50 98 1005.0
20240616073732 64 9 2.0 3.0 0.21 0.48 0.48 98 1005.1
20240616073231 64 243 2.0 3.0 0.26 0.46 0.46 98 1005.4
20240616072729 64 142 1.0 4.0 0.26 0.44 0.44 98 1005.7
20240616072228 64 215 3.0 4.0 0.18 0.42 0.42 98 1005.6
20240616071727 64 211 2.0 5.0 0.18 0.40 0.40 98 1005.9
20240616071225 64 176 0.0 4.0 0.23 0.39 0.39 98 1006.1
20240616070724 64 218 4.0 4.0 0.16 0.37 0.37 98 1005.3
20240616070222 64 113 1.0 4.0 0.11 0.35 0.35 98 1004.5
20240616065722 63 254 0.0 6.0 0.09 0.34 0.34 98 1004.7
20240616065220 64 43 0.0 5.0 0.11 0.33 0.33 98 1005.0
20240616064719 63 66 0.0 5.0 0.11 0.32 0.32 98 1005.2
20240616064220 63 201 4.0 7.0 0.26 0.31 0.31 98 1005.4
20240616063718 64 95 3.0 6.0 0.23 0.29 0.29 98 1005.7
20240616063218 63 230 3.0 7.0 0.09 0.26 0.26 98 1005.8
20240616062716 63 197 2.0 3.0 0.09 0.25 0.25 98 1005.9
20240616062214 63 127 2.0 4.0 0.09 0.24 0.24 98 1006.2
20240616061713 63 231 5.0 5.0 0.11 0.24 0.24 98 1006.2
20240616061210 63 150 1.0 4.0 0.14 0.23 0.23 98 1006.1
20240616060708 63 200 1.0 4.0 0.11 0.22 0.22 98 1006.1
20240616060207 63 280 2.0 8.0 0.09 0.21 0.21 98 1006.2
20240616055706 63 165 3.0 6.0 0.07 0.20 0.20 98 1006.1
20240616055205 63 156 2.0 5.0 0.02 0.19 0.19 98 1006.2
20240616054705 63 180 2.0 3.0 0.04 0.18 0.18 98 1006.3
20240616054203 63 137 3.0 6.0 0.04 0.18 0.18 98 1006.3
20240616053702 63 193 4.0 5.0 0.09 0.18 0.18 98 1006.2
20240616053200 62 142 4.0 5.0 0.07 0.17 0.17 98 1006.3
20240616052659 62 126 2.0 4.0 0.09 0.16 0.16 98 1006.6
20240616052158 62 155 0.0 5.0 0.14 0.15 0.15 98 1006.5
20240616051656 62 130 5.0 5.0 0.68 0.15 0.15 97 1006.6
20240616051155 62 114 4.0 8.0 0.78 0.13 0.13 97 1006.8
20240616050654 62 255 2.0 3.0 0.23 0.02 0.02 97 1007.2
20240616050152 62 165 2.0 4.0 0.18 0.00 0.00 97 1007.1
20240616045650 62 151 2.0 3.0 0.16 0.88 0.88 97 1007.1
20240616045148 62 123 1.0 4.0 0.21 0.87 0.87 97 1007.2
20240616044647 63 22 2.0 4.0 0.26 0.85 0.85 96 1007.3
20240616044147 63 170 3.0 3.0 0.18 0.82 0.82 96 1007.4
20240616043645 63 69 2.0 8.0 0.11 0.81 0.81 95 1007.5
20240616043144 63 149 3.0 4.0 0.04 0.79 0.79 94 1007.5
20240616042644 63 175 2.0 4.0 0.02 0.78 0.78 94 1007.6
20240616042142 64 26 2.0 5.0 0.00 0.78 0.78 93 1007.3
20240616041642 64 209 2.0 4.0 0.00 0.78 0.78 92 1007.3
20240616041142 64 7 2.0 3.0 0.00 0.78 0.78 91 1007.3
20240616040641 64 114 3.0 4.0 0.00 0.78 0.78 91 1007.3
20240616040139 64 129 2.0 4.0 0.00 0.78 0.78 92 1007.4
20240616035637 63 155 2.0 5.0 0.00 0.78 0.78 92 1007.3
20240616035135 63 96 2.0 4.0 0.00 0.78 0.78 92 1007.3
20240616034634 63 93 2.0 4.0 0.00 0.78 0.78 92 1007.6
20240616034132 63 72 2.0 3.0 0.00 0.78 0.78 92 1007.3
20240616033631 63 23 2.0 3.0 0.00 0.78 0.78 92 1007.4
20240616033130 63 116 1.0 4.0 0.00 0.78 0.78 92 1007.6
20240616032628 63 95 1.0 5.0 0.00 0.78 0.78 92 1007.6
20240616032127 63 128 3.0 4.0 0.00 0.78 0.78 93 1007.6
20240616031626 63 27 0.0 4.0 0.00 0.78 0.78 93 1007.6
20240616031125 63 63 1.0 3.0 0.00 0.78 0.78 94 1007.8
20240616030625 63 102 2.0 4.0 0.00 0.78 0.78 93 1007.9
20240616030123 63 111 2.0 4.0 0.00 0.78 0.78 94 1008.1
20240616025620 63 104 2.0 4.0 0.00 0.78 0.78 94 1007.9
20240616025120 63 100 1.0 9.0 0.00 0.78 0.78 94 1008.0
20240616024619 62 39 3.0 3.0 0.00 0.78 0.78 95 1008.1
20240616024118 62 87 1.0 4.0 0.00 0.78 0.78 96 1008.3
20240616023616 62 78 2.0 4.0 0.00 0.78 0.78 96 1008.5
20240616023116 62 41 1.0 3.0 0.00 0.78 0.78 96 1008.7
20240616022614 62 67 2.0 2.0 0.00 0.78 0.78 96 1008.5
20240616022112 62 44 0.0 2.0 0.00 0.78 0.78 96 1008.1
20240616021610 62 22 2.0 2.0 0.00 0.78 0.78 96 1008.4
20240616021110 62 352 1.0 4.0 0.00 0.78 0.78 95 1008.2
20240616020609 62 35 2.0 3.0 0.00 0.78 0.78 95 1007.9
20240616020109 62 59 2.0 2.0 0.00 0.78 0.78 96 1007.8
20240616015607 62 315 0.0 4.0 0.00 0.78 0.78 96 1007.9
20240616015107 62 109 2.0 4.0 0.00 0.78 0.78 96 1008.1
20240616014606 62 51 1.0 4.0 0.00 0.78 0.78 96 1008.1
20240616014105 62 25 3.0 5.0 0.00 0.78 0.78 96 1008.0
20240616013604 62 28 5.0 7.0 0.00 0.78 0.78 96 1008.1
20240616013104 62 53 4.0 8.0 0.00 0.78 0.78 96 1008.2
20240616012603 62 100 2.0 6.0 0.00 0.78 0.78 96 1008.2
20240616012103 62 54 2.0 4.0 0.00 0.78 0.78 96 1008.3
20240616011602 62 50 5.0 6.0 0.00 0.78 0.78 96 1008.5
20240616011102 62 79 2.0 5.0 0.00 0.78 0.78 96 1008.5
20240616010601 62 27 4.0 8.0 0.00 0.78 0.78 96 1008.7
20240616010059 62 112 2.0 3.0 0.00 0.78 0.78 96 1008.8
20240616005558 62 81 2.0 6.0 0.00 0.78 0.78 96 1008.8
20240616005057 62 63 4.0 5.0 0.00 0.78 0.78 97 1009.0
20240616004555 62 86 2.0 5.0 0.00 0.78 0.78 97 1009.3
20240616004055 62 102 3.0 5.0 0.04 0.78 0.78 97 1009.5
20240616003553 62 25 2.0 3.0 0.40 0.78 0.78 97 1009.5
20240616003053 62 46 2.0 4.0 0.30 0.76 0.76 96 1009.4
20240616002549 62 217 0.0 2.0 0.02 0.71 0.71 96 1009.8
20240616002047 62 78 4.0 4.0 0.07 0.71 0.71 96 1009.5
20240616001545 62 48 2.0 4.0 0.07 0.71 0.71 96 1009.2
20240616001044 62 29 6.0 6.0 0.02 0.70 0.70 96 1009.3
20240616000543 62 10 0.0 4.0 0.00 0.70 0.70 96 1009.5
20240616000042 62 108 3.0 5.0 0.00 0.70 0.70 96 1009.6
20240615235539 62 106 0.0 5.0 0.00 0.70 0.70 96 1009.7
20240615235038 62 79 1.0 3.0 0.00 0.70 0.70 96 1009.7
20240615234535 62 56 3.0 8.0 0.00 0.70 0.70 96 1009.8
20240615234035 62 65 2.0 3.0 0.00 0.70 0.70 96 1009.7
20240615233533 62 65 2.0 4.0 0.00 0.70 0.70 96 1009.9
20240615233033 61 31 3.0 4.0 0.00 0.70 0.70 96 1010.0
20240615232533 62 70 2.0 3.0 0.00 0.70 0.70 97 1010.2
20240615232030 61 89 0.0 4.0 0.02 0.70 0.70 96 1010.4
20240615231528 61 36 2.0 2.0 0.02 0.70 0.70 97 1010.4
20240615231025 61 49 2.0 5.0 0.00 0.69 0.69 97 1010.5
20240615230525 61 118 2.0 4.0 0.02 0.69 0.69 97 1010.4
20240615230024 61 346 1.0 3.0 0.11 0.69 0.69 97 1010.8
20240615225523 61 85 2.0 3.0 0.23 0.69 0.69 97 1010.6
20240615225023 61 62 1.0 3.0 0.23 0.67 0.67 97 1010.8
20240615224522 61 85 2.0 4.0 0.30 0.65 0.65 97 1010.9
20240615224021 61 71 2.0 3.0 0.30 0.63 0.63 97 1011.1
20240615223520 61 60 1.0 3.0 0.18 0.59 0.59 97 1011.1
20240615223018 61 242 2.0 2.0 0.21 0.57 0.57 96 1011.6
20240615222517 61 62 4.0 6.0 0.21 0.55 0.55 96 1011.3
20240615222015 61 199 1.0 3.0 0.18 0.53 0.53 96 1011.3
20240615221514 61 93 1.0 4.0 0.23 0.51 0.51 96 1011.2
20240615221011 61 111 3.0 3.0 0.26 0.50 0.50 96 1011.4
20240615220508 61 25 1.0 2.0 0.18 0.47 0.47 96 1011.5
20240615220007 61 224 0.0 2.0 0.26 0.45 0.45 96 1011.3
20240615215500 62 246 2.0 4.0 0.28 0.43 0.43 96 1011.4
20240615215000 62 115 3.0 4.0 0.21 0.41 0.41 96 1011.5
20240615214500 62 12 2.0 3.0 0.11 0.39 0.39 95 1011.6
20240615213958 61 112 2.0 5.0 0.07 0.37 0.37 95 1011.6
20240615213455 61 6 2.0 4.0 0.09 0.37 0.37 96 1011.7
20240615212941 61 22 0.0 4.0 0.11 0.36 0.36 96 1011.5
20240615212430 61 124 3.0 4.0 0.09 0.35 0.35 96 1011.6
20240615211929 61 95 3.0 5.0 0.16 0.34 0.34 95 1011.5
20240615211402 61 138 0.0 3.0 0.16 0.33 0.33 95 1011.6
20240615210901 61 116 2.0 2.0 0.09 0.31 0.31 95 1011.7
20240615210359 61 56 3.0 3.0 0.09 0.30 0.30 95 1011.8
20240615205858 61 94 2.0 5.0 0.11 0.29 0.29 95 1011.9
20240615205356 61 47 3.0 4.0 0.11 0.29 0.29 95 1011.9
20240615204856 61 62 2.0 4.0 0.28 0.28 0.28 95 1012.1
20240615204332 61 41 4.0 4.0 0.33 0.26 0.26 95 1012.1
20240615203830 61 129 0.0 3.0 0.21 0.23 0.23 95 1012.4
20240615203328 61 8 2.0 4.0 0.11 0.20 0.20 95 1012.3
20240615202826 61 132 3.0 3.0 0.11 0.19 0.19 95 1012.2
20240615202324 62 46 2.0 3.0 0.18 0.18 0.18 95 1012.1
20240615201823 62 22 2.0 3.0 0.23 0.17 0.17 95 1012.3
20240615201321 62 95 2.0 4.0 0.28 0.15 0.15 94 1012.1
20240615200820 62 137 2.0 4.0 0.21 0.12 0.12 94 1012.6
20240615200319 62 38 7.0 7.0 0.16 0.10 0.10 94 1012.5
20240615195813 62 106 3.0 3.0 0.11 0.09 0.09 94 1012.8
20240615195312 63 102 2.0 4.0 0.14 0.07 0.07 93 1012.5
20240615194810 63 89 0.0 3.0 0.16 0.07 0.07 93 1012.8
20240615194307 63 99 2.0 4.0 0.07 0.05 0.05 92 1013.0
20240615193805 63 126 2.0 5.0 0.04 0.04 0.04 92 1013.0
20240615193303 63 107 2.0 4.0 0.07 0.04 0.04 91 1013.3
20240615192800 64 198 2.0 4.0 0.07 0.03 0.03 90 1013.2
20240615192300 64 201 0.0 4.0 0.09 0.03 0.03 88 1013.2
20240615191757 65 130 2.0 4.0 0.07 0.02 0.02 85 1013.2
20240615191255 66 236 4.0 8.0 0.02 0.01 0.01 81 1013.2
20240615190753 67 114 2.0 4.0 0.00 0.01 0.01 80 1013.0
20240615190252 67 152 4.0 5.0 0.00 0.01 0.01 78 1013.2
20240615185339 67 119 2.0 3.0 0.00 0.01 0.01 80 1012.8
20240615184838 67 112 2.0 4.0 0.00 0.01 0.01 80 1013.1
20240615184336 67 121 4.0 4.0 0.00 0.01 0.01 78 1013.3
20240615183834 67 51 3.0 5.0 0.00 0.01 0.01 78 1013.3
20240615183333 67 126 2.0 3.0 0.00 0.01 0.01 81 1013.3
20240615182833 67 107 2.0 4.0 0.00 0.01 0.01 81 1013.2
20240615182333 67 180 0.0 3.0 0.00 0.01 0.01 82 1013.5
20240615181831 67 248 0.0 3.0 0.00 0.01 0.01 79 1013.5
20240615181330 67 73 2.0 3.0 0.00 0.01 0.01 80 1013.5
20240615180826 67 68 1.0 3.0 0.00 0.01 0.01 82 1013.4
20240615180325 67 39 3.0 3.0 0.00 0.01 0.01 83 1013.4
20240615175825 66 122 1.0 4.0 0.00 0.01 0.01 82 1013.3
20240615175323 67 111 0.0 2.0 0.00 0.01 0.01 84 1013.5
20240615174821 66 69 3.0 4.0 0.00 0.01 0.01 83 1013.6
20240615174318 66 110 0.0 2.0 0.00 0.01 0.01 83 1013.7
20240615173815 66 197 0.0 2.0 0.02 0.01 0.01 86 1013.6
20240615173313 66 101 1.0 2.0 0.02 0.01 0.01 84 1013.4
20240615172810 66 47 2.0 4.0 0.00 0.00 0.00 83 1013.5
20240615172308 66 31 0.0 2.0 0.00 0.00 0.00 84 1013.4
20240615171805 66 123 3.0 3.0 0.00 0.00 0.00 82 1013.7
20240615171305 66 135 0.0 5.0 0.02 0.00 0.00 82 1013.5
20240615170803 66 52 2.0 3.0 0.02 0.00 0.00 81 1013.6
20240615170258 66 117 0.0 3.0 0.00 0.00 0.00 82 1013.6
20240615165756 66 190 0.0 2.0 0.00 0.00 0.00 83 1013.8
20240615165256 66 23 0.0 4.0 0.00 0.00 0.00 82 1013.6
20240615164750 66 105 2.0 3.0 0.02 0.00 0.00 81 1013.9
20240615164247 67 74 0.0 5.0 0.00 0.00 0.00 79 1014.0
20240615163727 68 156 2.0 4.0 0.00 0.00 0.00 78 1013.9
20240615163225 69 57 1.0 2.0 0.00 0.00 0.00 75 1014.0
20240615162723 68 135 0.0 2.0 0.00 0.00 0.00 73 1014.0
20240615162223 68 143 1.0 4.0 0.00 0.00 0.00 73 1013.9
20240615161721 69 260 3.0 4.0 0.00 0.00 0.00 72 1014.0
20240615161220 69 142 3.0 4.0 0.00 0.00 0.00 72 1014.2
20240615160720 69 262 2.0 4.0 0.00 0.00 0.00 69 1014.3
20240615160216 70 161 2.0 7.0 0.00 0.00 0.00 67 1014.4
20240615155714 70 239 2.0 6.0 0.00 0.00 0.00 67 1014.2
20240615155212 70 323 2.0 8.0 0.00 0.00 0.00 66 1014.2
20240615154709 71 122 5.0 5.0 0.00 0.00 0.00 66 1014.4
20240615154208 71 103 3.0 5.0 0.00 0.00 0.00 66 1014.4
20240615153705 71 146 2.0 4.0 0.00 0.00 0.00 66 1014.6
20240615153203 71 128 1.0 5.0 0.00 0.00 0.00 66 1014.7
20240615152701 71 174 2.0 4.0 0.00 0.00 0.00 68 1014.9
20240615152201 71 82 3.0 4.0 0.00 0.00 0.00 66 1014.8
20240615151700 71 123 1.0 2.0 0.00 0.00 0.00 67 1014.8
20240615151158 71 240 3.0 6.0 0.00 0.00 0.00 64 1015.0
20240615150658 70 253 1.0 5.0 0.00 0.00 0.00 67 1015.0
20240615150157 70 290 0.0 2.0 0.00 0.00 0.00 67 1015.0
20240615145656 70 125 2.0 3.0 0.00 0.00 0.00 65 1015.0
20240615145154 70 136 1.0 2.0 0.00 0.00 0.00 69 1015.0
20240615144652 70 283 0.0 5.0 0.00 0.00 0.00 67 1015.3
20240615144151 70 111 1.0 2.0 0.00 0.00 0.00 66 1015.3
20240615143646 69 171 3.0 4.0 0.00 0.00 0.00 68 1015.3
20240615143143 69 117 2.0 3.0 0.00 0.00 0.00 69 1015.3
20240615142641 69 248 1.0 3.0 0.00 0.00 0.00 68 1015.4
20240615142141 69 212 0.0 2.0 0.00 0.00 0.00 67 1015.3
20240615141640 69 157 0.0 4.0 0.00 0.00 0.00 69 1015.5
20240615141140 69 232 2.0 3.0 0.00 0.00 0.00 67 1015.9
20240615140640 69 252 4.0 4.0 0.00 0.00 0.00 66 1015.6
20240615140138 69 205 0.0 4.0 0.00 0.00 0.00 70 1015.8
20240615135633 68 228 3.0 5.0 0.00 0.00 0.00 68 1015.9
20240615135132 68 181 1.0 3.0 0.00 0.00 0.00 70 1016.0
20240615134631 68 199 0.0 2.0 0.00 0.00 0.00 70 1016.0
20240615134130 67 214 0.0 2.0 0.00 0.00 0.00 71 1016.1
20240615133629 67 30 2.0 3.0 0.00 0.00 0.00 70 1015.9
20240615133127 67 220 3.0 4.0 0.00 0.00 0.00 70 1016.0
20240615132626 67 112 1.0 3.0 0.00 0.00 0.00 71 1015.1
20240615132125 68 39 3.0 4.0 0.00 0.00 0.00 69 1015.0
20240615131624 67 89 0.0 2.0 0.00 0.00 0.00 70 1015.4
20240615131122 67 123 2.0 3.0 0.00 0.00 0.00 69 1015.5
20240615130621 67 164 1.0 3.0 0.00 0.00 0.00 71 1015.6
20240615130120 67 108 2.0 3.0 0.00 0.00 0.00 69 1015.7
20240615125618 67 129 0.0 3.0 0.00 0.00 0.00 70 1015.8
20240615125116 67 147 0.0 2.0 0.00 0.00 0.00 70 1015.8
20240615124614 67 139 1.0 2.0 0.00 0.00 0.00 69 1015.7
20240615124113 67 94 1.0 2.0 0.00 0.00 0.00 70 1015.9
20240615123613 67 116 0.0 2.0 0.00 0.00 0.00 70 1016.0
20240615123112 67 149 2.0 2.0 0.00 0.00 0.00 70 1016.1
20240615122610 67 246 0.0 2.0 0.00 0.00 0.00 71 1015.9
20240615122109 66 146 1.0 2.0 0.00 0.00 0.00 69 1015.8
20240615121608 66 129 0.0 2.0 0.00 0.00 0.00 71 1015.9
20240615121106 66 251 0.0 2.0 0.00 0.00 0.00 71 1016.1
20240615120605 66 245 1.0 2.0 0.00 0.00 0.00 72 1015.7
20240615120105 66 95 1.0 4.0 0.00 0.00 0.00 72 1015.9
20240615115604 66 126 0.0 3.0 0.00 0.00 0.00 74 1015.8
20240615115102 65 133 2.0 2.0 0.00 0.00 0.00 74 1015.9
20240615114600 65 104 0.0 2.0 0.00 0.00 0.00 74 1016.0
20240615114100 65 128 0.0 2.0 0.00 0.00 0.00 76 1015.7
20240615113558 65 70 0.0 2.0 0.00 0.00 0.00 75 1016.0
20240615113056 64 89 0.0 2.0 0.00 0.00 0.00 76 1015.8
20240615112555 64 66 0.0 2.0 0.00 0.00 0.00 75 1016.0
20240615112054 64 76 0.0 2.0 0.00 0.00 0.00 76 1016.0
20240615111552 64 86 1.0 1.0 0.00 0.00 0.00 77 1016.1
20240615111049 63 93 0.0 1.0 0.00 0.00 0.00 77 1015.9
20240615110547 63 44 2.0 2.0 0.00 0.00 0.00 77 1015.9
20240615110045 63 66 2.0 3.0 0.00 0.00 0.00 78 1016.2
20240615105543 63 72 2.0 2.0 0.00 0.00 0.00 78 1016.3
20240615105042 62 52 1.0 1.0 0.00 0.00 0.00 78 1016.2
20240615104541 62 110 0.0 2.0 0.00 0.00 0.00 78 1016.1
20240615104040 62 139 0.0 1.0 0.00 0.00 0.00 79 1016.0
20240615103538 62 113 0.0 1.0 0.00 0.00 0.00 78 1016.4
20240615103037 62 66 0.0 1.0 0.00 0.00 0.00 78 1016.1
20240615102535 62 67 1.0 2.0 0.00 0.00 0.00 78 1015.8
20240615102034 62 74 1.0 1.0 0.00 0.00 0.00 78 1016.0
20240615101532 62 100 0.0 1.0 0.00 0.00 0.00 78 1016.1
20240615101031 62 89 0.0 1.0 0.00 0.00 0.00 77 1016.2
20240615100530 62 89 0.0 2.0 0.00 0.00 0.00 77 1016.1
20240615100029 63 109 1.0 2.0 0.00 0.00 0.00 77 1016.1
20240615095528 63 80 0.0 1.0 0.00 0.00 0.00 75 1016.2
20240615095026 63 89 0.0 2.0 0.00 0.00 0.00 75 1016.2
20240615094524 63 76 0.0 2.0 0.00 0.00 0.00 74 1016.2
20240615094022 64 83 0.0 1.0 0.00 0.00 0.00 73 1016.4
20240615093521 64 89 0.0 2.0 0.00 0.00 0.00 72 1016.5
20240615093020 64 103 0.0 2.0 0.00 0.00 0.00 72 1016.4
20240615092519 65 58 0.0 2.0 0.00 0.00 0.00 72 1016.7
20240615092017 65 142 0.0 1.0 0.00 0.00 0.00 72 1016.8
20240615091514 64 63 0.0 2.0 0.00 0.00 0.00 72 1016.5
20240615091012 64 351 0.0 2.0 0.00 0.00 0.00 72 1016.8
20240615090510 64 160 1.0 1.0 0.00 0.00 0.00 74 1016.7
20240615090010 64 141 0.0 1.0 0.00 0.00 0.00 75 1016.4
20240615085508 64 123 1.0 2.0 0.00 0.00 0.00 77 1016.5
20240615085005 63 149 2.0 2.0 0.00 0.00 0.00 77 1016.5
20240615084502 63 113 0.0 1.0 0.00 0.00 0.00 78 1016.4